Flight Track Log - Related Links

Times and Time Zones

All times are in EDT time to prevent confusion due to time zone crossing. See the UAL4583 flight status page for this flight to view local times or setup timezone preferences in your user account.

Time Position Orientation Groundspeed Altitude Reporting Facility
EDT Latitude Longitude Course Direction KTS MPH feet Rate Location/Type
Sat 08:28:47 AM 40.6333 -74.1833 58° Northeast 185 213 1,700  Level New York TRACON
Sat 08:29:47 AM 40.6000 -74.2500 237° Southwest 245 282 3,400 1,900 Climbing New York TRACON
Sat 08:30:47 AM 40.6667 -74.2333 11° North 239 275 5,500 1,350 Climbing New York TRACON
Sat 08:31:47 AM 40.7333 -74.1833 30° Northeast 283 326 6,100 300 Climbing New York TRACON
Sat 08:32:47 AM 40.7833 -74.1167 45° Northeast 280 322 6,100  Level New York TRACON
Sat 08:33:47 AM 40.8167 -74.0333 62° Northeast 282 325 6,100 700 Level New York TRACON
Sat 08:34:00 AM 40.7124 -74.1258 58° Northeast  Level FlightAware Approximate
Sat 08:34:47 AM 40.8667 -73.9333 57° Northeast 286 329 7,500  Level New York TRACON
Sat 08:35:47 AM 40.9167 -73.8667 45° Northeast 299 344 9,600 2,050 Climbing New York TRACON
Sat 08:36:47 AM 40.9833 -73.8000 37° Northeast 299 344 11,600 1,863 Climbing New York TRACON
Sat 08:38:28 AM 41.1125 -73.6750 36° Northeast 327 376 14,600 1,680 Climbing New York Center
Sat 08:39:17 AM 41.1686 -73.6192 37° Northeast 326 375 15,800 1,266 Climbing Boston Center
Sat 08:40:17 AM 41.2467 -73.5433 36° Northeast 345 397 16,900 1,091 Climbing Boston Center
Sat 08:41:18 AM 41.3300 -73.4606 37° Northeast 370 426 18,000 1,091 Climbing Boston Center
Sat 08:42:18 AM 41.4161 -73.3772 36° Northeast 390 449 19,100 1,065 Climbing Boston Center
Sat 08:43:22 AM 41.5042 -73.2822 39° Northeast 403 464 20,200 912 Climbing Boston Center
Sat 08:44:23 AM 41.5844 -73.1828 43° Northeast 411 473 21,000 393 Climbing Boston Center
Sat 08:45:24 AM 41.7039 -73.1636 North 436 502 21,000  Level Boston Center
Sat 08:46:24 AM 41.8294 -73.1806 354° North 447 514 21,000  Level Boston Center
Sat 08:47:25 AM 41.9822 -73.2014 354° North 456 525 21,000  Level Boston Center
Sat 08:48:26 AM 42.1106 -73.2186 354° North 460 529 21,000  Level Boston Center
Sat 08:49:26 AM 42.2383 -73.2381 354° North 460 529 21,000  Level Boston Center
Sat 08:50:27 AM 42.3669 -73.2514 356° North 460 529 21,000  Level Boston Center
Sat 08:51:30 AM 42.4811 -73.1728 27° Northeast 461 531 21,000  Level Boston Center
Sat 08:52:31 AM 42.5572 -73.0256 55° Northeast 462 532 21,000  Level Boston Center
Sat 08:53:32 AM 42.6264 -72.8836 56° Northeast 460 529 21,000  Level Boston Center
Sat 08:54:32 AM 42.6964 -72.7419 56° Northeast 457 526 21,000  Level Boston Center
Sat 08:55:32 AM 42.7633 -72.6064 56° Northeast 456 525 21,000  Level Boston Center
Sat 08:56:37 AM 42.8336 -72.4622 56° Northeast 456 525 21,000  Level Boston Center
Sat 08:57:37 AM 42.9025 -72.3197 57° Northeast 455 524 21,000  Level Boston Center
Sat 08:58:38 AM 42.9792 -72.1628 56° Northeast 455 524 21,000  Level Boston Center
Sat 08:59:39 AM 43.0483 -72.0172 57° Northeast 455 524 21,000  Level Boston Center
Sat 09:00:39 AM 43.1183 -71.8742 56° Northeast 456 525 21,000 -148 Level Boston Center
Sat 09:01:41 AM 43.1881 -71.7303 56° Northeast 456 525 20,700 -1,328 Descending Boston Center
Sat 09:02:41 AM 43.2661 -71.5614 58° Northeast 437 503 18,300 -2,678 Descending Boston Center
Sat 09:03:42 AM 43.3303 -71.4264 57° Northeast 425 489 15,300 -2,758 Descending Boston Center
Sat 09:04:45 AM 43.3917 -71.2953 57° Northeast 413 475 12,600 -2,081 Descending Boston Center
Sat 09:05:46 AM 43.4475 -71.1750 57° Northeast 379 436 11,000 -787 Descending Boston Center
Sat 09:06:47 AM 43.4917 -71.0369 66° East 368 423 11,000 -49 Level Boston Center
Sat 09:07:48 AM 43.5289 -70.8997 69° East 382 440 10,900 -397 Descending Boston Center
Sat 09:08:48 AM 43.5353 -70.7808 86° East 312 359 10,200 -1,190 Descending Boston Center
Sat 09:09:49 AM 43.5306 -70.6678 93° East 298 343 8,500 -1,770 Descending Boston Center
Sat 09:10:50 AM 43.5233 -70.5514 95° East 290 334 6,600 -1,707 Descending Boston Center
Sat 09:11:52 AM 43.5183 -70.4436 94° East 287 330 5,000 -1,268 Descending Boston Center
Sat 09:12:53 AM 43.5119 -70.3428 95° East 271 312 4,000 -484 Descending Boston Center
Sat 09:13:56 AM 43.5075 -70.2503 94° East 222 255 4,000 -339 Level Boston Center
Sat 09:14:57 AM 43.5050 -70.1783 93° East 192 221 3,300 -1,041 Descending Boston Center
Sat 09:15:57 AM 43.5244 -70.1081 69° East 198 228 1,900 -744 Descending Boston Center
Sat 09:16:58 AM 43.5792 -70.1011 North 182 209 1,800 -48 Descending Boston Center
Sat 09:18:01 AM 43.6197 -70.1203 341° North 170 196 1,800  Level Boston Center
Sat 09:19:02 AM 43.6350 -70.1656 295° West 135 155 1,800 -298 Level Boston Center
Sat 09:20:02 AM 43.6378 -70.2167 274° West 135 155 1,200 -639 Descending Boston Center
Sat 09:21:04 AM 43.6419 -70.2736 276° West 135 155 500 -541 Descending Boston Center
Sat 09:22:04 AM 43.6453 -70.3242 275° West 135 155 100 -400 Descending Boston Center

Login

Don't have an account? Register now (free) for customized features, flight alerts, and more!